Time;durP1;ratioP1;P1;durP2;ratioP2;P2;SDS_P1;SDS_P2;PMS_P1;PMS_P2;Temp;Humidity;BMP_temperature;BMP_pressure;BME280_temperature;BME280_humidity;BME280_pressure;Samples;Min_cycle;Max_cycle;Signal;HPM_P1;HPM_P2
2023/01/31 00:01:18;;;;;;;1999.90;999.90;;;;;;;-2.55;100.00;97960.63;5074145;28;20032;-84
2023/01/31 00:03:44;;;;;;;1999.90;999.90;;;;;;;-2.60;100.00;97955.06;5073387;28;20031;-84
2023/01/31 00:06:10;;;;;;;1999.90;999.90;;;;;;;-2.47;100.00;97955.03;5074465;28;20040;-84
2023/01/31 00:08:36;;;;;;;1999.90;999.90;;;;;;;-2.35;100.00;97963.22;5074154;28;20045;-81
2023/01/31 00:11:01;;;;;;;1999.90;999.90;;;;;;;-2.38;100.00;97945.69;5074877;28;20388;-83
2023/01/31 00:13:26;;;;;;;1999.90;999.90;;;;;;;-2.29;100.00;97955.13;5076176;28;20032;-83
2023/01/31 00:15:55;;;;;;;1999.90;999.90;;;;;;;-2.19;100.00;97963.53;5077265;28;20407;-83
2023/01/31 00:18:21;;;;;;;1999.90;999.90;;;;;;;-2.14;100.00;97949.50;5077677;28;20020;-80
2023/01/31 00:20:46;;;;;;;1999.90;999.90;;;;;;;-2.04;100.00;97965.13;5076229;28;20024;-84
2023/01/31 00:23:11;;;;;;;1999.90;999.90;;;;;;;-2.04;100.00;97962.44;5076744;28;20039;-82
2023/01/31 00:25:37;;;;;;;1999.90;999.90;;;;;;;-2.13;100.00;97964.53;5075394;28;20039;-82
2023/01/31 00:28:02;;;;;;;1999.90;999.90;;;;;;;-2.04;100.00;97971.31;5076490;28;20024;-83
2023/01/31 00:30:28;;;;;;;1999.90;999.90;;;;;;;-1.92;100.00;97976.78;5081654;28;20029;-84
2023/01/31 00:32:53;;;;;;;1999.90;999.90;;;;;;;-1.95;100.00;97972.69;5083287;28;20029;-82
2023/01/31 00:35:18;;;;;;;1999.90;999.90;;;;;;;-2.01;100.00;97967.38;5083634;28;20031;-84
2023/01/31 00:37:43;;;;;;;1999.90;999.90;;;;;;;-1.97;100.00;97976.63;5089444;28;20031;-82
2023/01/31 00:40:09;;;;;;;1999.90;999.90;;;;;;;-1.98;100.00;97978.47;5087669;28;20021;-80
2023/01/31 00:42:35;;;;;;;1999.90;999.90;;;;;;;-2.12;100.00;97968.03;5086191;28;20047;-82
2023/01/31 00:45:00;;;;;;;1999.90;999.90;;;;;;;-2.19;100.00;97962.72;5083111;28;20370;-82
2023/01/31 00:47:25;;;;;;;1999.90;999.90;;;;;;;-2.22;100.00;97966.63;5080869;28;20074;-78
2023/01/31 00:49:50;;;;;;;1999.90;999.90;;;;;;;-2.17;100.00;97974.06;5078613;28;20040;-81
2023/01/31 00:52:16;;;;;;;1999.90;999.90;;;;;;;-2.18;100.00;97973.22;5076282;28;20020;-83
2023/01/31 00:54:41;;;;;;;1999.90;999.90;;;;;;;-2.02;100.00;97977.25;5081538;28;20396;-82
2023/01/31 00:57:07;;;;;;;1999.90;999.90;;;;;;;-2.11;100.00;97978.53;5079707;28;20059;-81
2023/01/31 00:59:32;;;;;;;1999.90;999.90;;;;;;;-2.12;100.00;97976.06;5079167;28;20051;-81
2023/01/31 01:01:57;;;;;;;1999.90;999.90;;;;;;;-2.12;100.00;97971.53;5079019;28;20028;-85
2023/01/31 01:04:23;;;;;;;1999.90;999.90;;;;;;;-2.18;100.00;97983.94;5073070;28;20119;-80
2023/01/31 01:06:49;;;;;;;1999.90;999.90;;;;;;;-2.13;100.00;97969.09;5076475;28;20032;-83
2023/01/31 01:09:15;;;;;;;1999.90;999.90;;;;;;;-2.03;100.00;97983.63;5073346;28;20055;-81
2023/01/31 01:11:40;;;;;;;1999.90;999.90;;;;;;;-1.94;100.00;97989.59;5070171;28;20028;-81
2023/01/31 01:14:06;;;;;;;1999.90;999.90;;;;;;;-1.95;100.00;97977.22;5074226;28;20477;-80
2023/01/31 01:16:34;;;;;;;1999.90;999.90;;;;;;;-1.97;100.00;97981.97;5092439;28;20035;-81
2023/01/31 01:19:02;;;;;;;1999.90;999.90;;;;;;;-1.99;100.00;97998.25;5090770;28;20389;-79
2023/01/31 01:21:29;;;;;;;1999.90;999.90;;;;;;;-2.03;100.00;97975.59;5092420;28;20097;-80
2023/01/31 01:23:59;;;;;;;1999.90;999.90;;;;;;;-1.73;100.00;97998.13;5092893;28;20050;-80
2023/01/31 01:26:27;;;;;;;1999.90;999.90;;;;;;;-1.73;100.00;97971.31;5092270;28;20051;-80
2023/01/31 01:28:55;;;;;;;1999.90;999.90;;;;;;;-1.29;100.00;97990.97;5100190;28;20111;-80
2023/01/31 01:31:21;;;;;;;1999.90;999.90;;;;;;;-1.13;100.00;98007.31;5092351;28;20027;-81
2023/01/31 01:33:48;;;;;;;1999.90;999.90;;;;;;;-1.19;100.00;98000.16;5093410;28;20036;-81
2023/01/31 01:36:16;;;;;;;1999.90;999.90;;;;;;;-1.19;100.00;98016.25;5096398;28;20035;-79
2023/01/31 01:38:42;;;;;;;1999.90;999.90;;;;;;;-1.20;100.00;98014.63;5096320;28;20469;-80
2023/01/31 01:41:09;;;;;;;1999.90;999.90;;;;;;;-1.09;100.00;98000.50;5083191;28;20025;-84
2023/01/31 01:43:50;;;;;;;1999.90;999.90;;;;;;;-1.22;100.00;98000.59;5072894;28;20020;-78
2023/01/31 01:46:43;;;;;;;1999.90;999.90;;;;;;;-1.33;100.00;97998.63;5071831;28;20032;-80
2023/01/31 01:49:35;;;;;;;1999.90;999.90;;;;;;;-1.36;100.00;98019.72;5069180;28;20040;-77
2023/01/31 01:52:04;;;;;;;1999.90;999.90;;;;;;;-1.40;100.00;98016.63;5071678;28;20051;-78
2023/01/31 01:54:43;;;;;;;1999.90;999.90;;;;;;;-1.49;100.00;98034.03;5071929;28;20025;-81
2023/01/31 01:57:11;;;;;;;1999.90;999.90;;;;;;;-1.56;100.00;97997.56;5072156;28;20039;-81
2023/01/31 01:59:42;;;;;;;1999.90;999.90;;;;;;;-1.61;100.00;98006.28;5072249;28;20024;-80
2023/01/31 02:02:08;;;;;;;1999.90;999.90;;;;;;;-1.65;100.00;98010.41;5072873;28;20036;-79
2023/01/31 02:04:37;;;;;;;1999.90;999.90;;;;;;;-1.71;100.00;98012.09;5070187;28;20090;-81
2023/01/31 02:07:02;;;;;;;1999.90;999.90;;;;;;;-1.82;100.00;97991.38;5072090;28;20028;-80
2023/01/31 02:09:35;;;;;;;1999.90;999.90;;;;;;;-1.83;100.00;98013.84;5080544;28;20047;-82
2023/01/31 02:12:00;;;;;;;1999.90;999.90;;;;;;;-1.83;100.00;97996.94;5090902;28;20032;-83
2023/01/31 02:14:26;;;;;;;1999.90;999.90;;;;;;;-1.87;100.00;98006.44;5092480;28;20032;-83
2023/01/31 02:16:51;;;;;;;1999.90;999.90;;;;;;;-1.88;100.00;98004.81;5092665;28;20541;-82
2023/01/31 02:19:45;;;;;;;1999.90;999.90;;;;;;;-2.03;100.00;98002.41;5092134;28;20039;-84
2023/01/31 02:22:25;;;;;;;1999.90;999.90;;;;;;;-1.96;100.00;98029.97;5092313;28;20059;-83
2023/01/31 02:25:15;;;;;;;1999.90;999.90;;;;;;;-2.05;100.00;98020.56;5092483;28;20063;-82
2023/01/31 02:28:30;;;;;;;1999.90;999.90;;;;;;;-1.92;100.00;98017.81;5072110;28;20431;-81
2023/01/31 02:31:32;;;;;;;1999.90;999.90;;;;;;;-1.85;100.00;98012.41;4992660;28;20034;-83
2023/01/31 02:34:03;;;;;;;1999.90;999.90;;;;;;;-1.90;100.00;98028.31;4991430;28;20041;-81
2023/01/31 02:36:55;;;;;;;1999.90;999.90;;;;;;;-1.87;100.00;98025.19;5052179;28;20041;-83
2023/01/31 02:39:41;;;;;;;1999.90;999.90;;;;;;;-1.91;100.00;98024.78;5072033;28;20029;-81
2023/01/31 02:42:16;;;;;;;1999.90;999.90;;;;;;;-1.85;100.00;98028.50;5071720;28;20024;-81
2023/01/31 02:44:59;;;;;;;1999.90;999.90;;;;;;;-1.88;100.00;98032.41;5072369;28;20036;-82
2023/01/31 02:47:39;;;;;;;1999.90;999.90;;;;;;;-1.99;100.00;98024.22;5070718;28;20070;-83
2023/01/31 02:50:28;;;;;;;1999.90;999.90;;;;;;;-1.93;100.00;98023.38;5072650;28;20040;-82
2023/01/31 02:53:24;;;;;;;1999.90;999.90;;;;;;;-1.98;100.00;98028.56;5072279;28;20119;-81
2023/01/31 02:56:17;;;;;;;1999.90;999.90;;;;;;;-1.96;100.00;98029.16;5078404;28;20033;-82
2023/01/31 02:58:52;;;;;;;1999.90;999.90;;;;;;;-1.77;100.00;98028.22;5075372;28;20024;-83
2023/01/31 03:01:23;;;;;;;1999.90;999.90;;;;;;;-1.73;100.00;98024.09;5084383;28;20024;-82
2023/01/31 03:03:50;;;;;;;1999.90;999.90;;;;;;;-1.67;100.00;98023.22;5086263;28;20044;-83
2023/01/31 03:06:21;;;;;;;1999.90;999.90;;;;;;;-1.46;100.00;98016.69;5086522;28;20020;-84
2023/01/31 03:08:51;;;;;;;1999.90;999.90;;;;;;;-1.29;100.00;98020.47;5088457;28;20044;-83
2023/01/31 03:11:18;;;;;;;1999.90;999.90;;;;;;;-1.20;100.00;98036.09;5083717;28;20044;-79
2023/01/31 03:13:57;;;;;;;1999.90;999.90;;;;;;;-0.88;100.00;98036.84;5072229;28;20020;-81
2023/01/31 03:19:27;;;;;;;1999.90;999.90;;;;;;;-0.78;100.00;98039.00;5074419;28;20082;-82
2023/01/31 03:22:02;;;;;;;1999.90;999.90;;;;;;;-0.95;100.00;98043.31;5077957;28;20021;-84
2023/01/31 03:24:29;;;;;;;1999.90;999.90;;;;;;;-1.01;100.00;98052.25;5078323;28;20088;-83
2023/01/31 03:26:57;;;;;;;1999.90;999.90;;;;;;;-0.92;100.00;98059.81;5081415;28;20020;-84
2023/01/31 03:29:24;;;;;;;1999.90;999.90;;;;;;;-0.95;100.00;98064.78;5082404;28;20043;-84
2023/01/31 03:32:03;;;;;;;1999.90;999.90;;;;;;;-0.93;100.00;98071.56;5081735;28;20024;-80
2023/01/31 03:34:29;;;;;;;1999.90;999.90;;;;;;;-0.75;100.00;98054.72;5081276;28;20392;-84
2023/01/31 03:37:02;;;;;;;1999.90;999.90;;;;;;;-0.44;100.00;98068.03;5084212;28;20059;-84
2023/01/31 03:39:59;;;;;;;1999.90;999.90;;;;;;;0.06;100.00;98076.75;5086811;28;20029;-85
2023/01/31 03:42:39;;;;;;;1999.90;999.90;;;;;;;-0.08;100.00;98075.25;5016325;28;20043;-82
2023/01/31 03:45:22;;;;;;;1999.90;999.90;;;;;;;-0.07;100.00;98096.56;5089075;28;20033;-84
2023/01/31 03:47:49;;;;;;;1999.90;999.90;;;;;;;-0.44;100.00;98088.69;5094241;28;20088;-83
2023/01/31 03:50:27;;;;;;;1999.90;999.90;;;;;;;-0.65;100.00;98080.00;5083990;28;20103;-81
2023/01/31 03:53:21;;;;;;;1999.90;999.90;;;;;;;-0.77;100.00;98073.69;5080534;28;20115;-83
2023/01/31 03:56:05;;;;;;;1999.90;999.90;;;;;;;-0.79;100.00;98072.28;5083914;28;20039;-83
2023/01/31 03:58:37;;;;;;;1999.90;999.90;;;;;;;-0.64;100.00;98072.75;5093576;28;20480;-84
2023/01/31 04:01:07;;;;;;;1999.90;999.90;;;;;;;-0.44;100.00;98073.41;5101532;28;20039;-85
2023/01/31 04:03:42;;;;;;;1999.90;999.90;;;;;;;-0.43;100.00;98080.41;5105656;28;20024;-84
2023/01/31 04:06:09;;;;;;;;;;;;;;;-0.43;100.00;98087.63;5106818;28;20028;-84
2023/01/31 04:08:34;;;;;;;1999.90;999.90;;;;;;;-0.64;100.00;98091.56;5112842;28;19943;-84
2023/01/31 04:11:03;;;;;;;1999.90;999.90;;;;;;;-0.81;100.00;98077.03;5115995;28;20703;-82
2023/01/31 04:13:28;;;;;;;1999.90;999.90;;;;;;;-0.98;100.00;98058.00;5117906;28;20016;-85
2023/01/31 04:15:53;;;;;;;1999.90;999.90;;;;;;;-1.00;100.00;98089.59;5114293;28;20039;-88
2023/01/31 04:18:19;;;;;;;1999.90;999.90;;;;;;;-1.12;100.00;98091.34;5112117;28;20028;-84
2023/01/31 04:20:44;;;;;;;1999.90;999.90;;;;;;;-1.30;100.00;98078.66;5111612;28;20054;-82
2023/01/31 04:23:09;;;;;;;1999.90;999.90;;;;;;;-1.33;100.00;98089.00;5098966;28;20043;-82
2023/01/31 04:25:34;;;;;;;1999.90;999.90;;;;;;;-1.48;100.00;98092.00;5098503;28;20024;-83
2023/01/31 04:28:00;;;;;;;1999.90;999.90;;;;;;;-1.52;100.00;98087.25;5098117;28;20048;-83
2023/01/31 04:30:25;;;;;;;1999.90;999.90;;;;;;;-1.60;100.00;98090.22;5097312;28;20035;-81
2023/01/31 04:32:50;;;;;;;1999.90;999.90;;;;;;;-1.63;100.00;98091.47;5096526;28;20028;-82
2023/01/31 04:35:16;;;;;;;1999.90;999.90;;;;;;;-1.76;100.00;98083.50;5095703;28;20024;-83
2023/01/31 04:37:41;;;;;;;1999.90;999.90;;;;;;;-1.90;100.00;98087.25;5098029;28;20440;-84
2023/01/31 04:40:07;;;;;;;1999.90;999.90;;;;;;;-2.02;100.00;98092.47;5101823;28;20030;-83
2023/01/31 04:42:32;;;;;;;1999.90;999.90;;;;;;;-1.97;100.00;98106.03;5098703;28;20032;-82
2023/01/31 04:44:58;;;;;;;1999.90;999.90;;;;;;;-2.03;100.00;98092.66;5103960;28;20020;-86
2023/01/31 04:47:24;;;;;;;1999.90;999.90;;;;;;;-2.10;100.00;98100.75;5097861;28;20540;-83
2023/01/31 04:49:49;;;;;;;1999.90;999.90;;;;;;;-2.01;100.00;98106.69;5098431;28;20024;-83
2023/01/31 04:52:14;;;;;;;1999.90;999.90;;;;;;;-1.98;100.00;98106.25;5099916;28;20020;-83
2023/01/31 04:54:40;;;;;;;1999.90;999.90;;;;;;;-2.14;100.00;98118.28;5097574;28;20589;-81
2023/01/31 04:57:06;;;;;;;1999.90;999.90;;;;;;;-2.23;100.00;98100.78;5097272;28;20028;-83
2023/01/31 04:59:31;;;;;;;1999.90;999.90;;;;;;;-2.22;100.00;98105.09;5095720;28;20369;-83
2023/01/31 05:01:57;;;;;;;1999.90;999.90;;;;;;;-2.24;100.00;98104.50;5098096;28;20056;-82
2023/01/31 05:04:22;;;;;;;1999.90;999.90;;;;;;;-2.24;100.00;98099.13;5096465;28;20036;-81
2023/01/31 05:06:48;;;;;;;1999.90;999.90;;;;;;;-2.34;100.00;98098.75;5094745;28;20499;-83
2023/01/31 05:09:13;;;;;;;1999.90;999.90;;;;;;;-2.20;100.00;98122.63;5096936;28;20042;-84
2023/01/31 05:11:38;;;;;;;1999.90;999.90;;;;;;;-2.24;100.00;98118.72;5095942;28;20016;-81
2023/01/31 05:14:04;;;;;;;1999.90;999.90;;;;;;;-2.24;100.00;98118.72;5093104;28;20039;-82
2023/01/31 05:16:29;;;;;;;1999.90;999.90;;;;;;;-2.31;100.00;98120.56;5095899;28;20020;-80
2023/01/31 05:18:54;;;;;;;1999.90;999.90;;;;;;;-2.33;100.00;98136.03;5099113;28;20358;-82
2023/01/31 05:21:20;;;;;;;1999.90;999.90;;;;;;;-2.34;100.00;98125.53;5099016;28;20020;-83
2023/01/31 05:23:45;;;;;;;1999.90;999.90;;;;;;;-2.28;100.00;98135.38;5098876;28;20024;-82
2023/01/31 05:26:10;;;;;;;1999.90;999.90;;;;;;;-2.37;100.00;98134.81;5097113;28;20058;-83
2023/01/31 05:28:36;;;;;;;1999.90;999.90;;;;;;;-2.35;100.00;98151.47;5097369;28;20043;-83
2023/01/31 05:31:04;;;;;;;1999.90;999.90;;;;;;;-2.44;100.00;98144.69;5097719;28;20029;-82
2023/01/31 05:33:30;;;;;;;1999.90;999.90;;;;;;;-2.37;100.00;98150.88;5101001;28;20028;-83
2023/01/31 05:35:56;;;;;;;1999.90;999.90;;;;;;;-2.25;100.00;98153.72;5096687;28;20061;-84
2023/01/31 05:38:22;;;;;;;1999.90;999.90;;;;;;;-2.27;100.00;98164.66;5095941;28;20111;-81
2023/01/31 05:40:49;;;;;;;1999.90;999.90;;;;;;;-2.30;100.00;98162.41;5087653;28;20119;-81
2023/01/31 05:43:14;;;;;;;1999.90;999.90;;;;;;;-2.27;100.00;98167.34;5086334;28;20526;-83
2023/01/31 05:45:40;;;;;;;1999.90;999.90;;;;;;;-2.28;100.00;98171.03;5074816;28;20068;-81
2023/01/31 05:48:06;;;;;;;1999.90;999.90;;;;;;;-2.31;100.00;98170.63;5073726;28;20385;-84
2023/01/31 05:50:31;;;;;;;1999.90;999.90;;;;;;;-2.44;100.00;98152.72;5073445;28;20031;-83
2023/01/31 05:53:08;;;;;;;1999.90;999.90;;;;;;;-2.36;100.00;98173.13;5074400;28;20028;-82
2023/01/31 05:55:33;;;;;;;1999.90;999.90;;;;;;;-2.33;100.00;98170.84;5072742;28;20028;-82
2023/01/31 05:57:59;;;;;;;1999.90;999.90;;;;;;;-2.29;100.00;98169.38;5077654;28;20389;-86
2023/01/31 06:00:25;;;;;;;1999.90;999.90;;;;;;;-2.30;100.00;98173.09;5074837;28;20047;-81
2023/01/31 06:02:50;;;;;;;1999.90;999.90;;;;;;;-2.37;100.00;98195.56;5075525;28;20435;-82
2023/01/31 06:05:16;;;;;;;1999.90;999.90;;;;;;;-2.37;100.00;98182.16;5073953;28;20017;-83
2023/01/31 06:07:42;;;;;;;1999.90;999.90;;;;;;;-2.42;100.00;98193.53;5085064;28;20049;-85
2023/01/31 06:10:09;;;;;;;1999.90;999.90;;;;;;;-2.33;100.00;98178.88;5086813;28;20082;-84
2023/01/31 06:12:35;;;;;;;1999.90;999.90;;;;;;;-2.30;100.00;98188.34;5093023;28;20013;-84
2023/01/31 06:15:01;;;;;;;1999.90;999.90;;;;;;;-2.46;100.00;98180.75;5085988;28;20032;-80
2023/01/31 06:17:26;;;;;;;1999.90;999.90;;;;;;;-2.45;100.00;98196.63;5082399;28;20047;-82
2023/01/31 06:19:52;;;;;;;1999.90;999.90;;;;;;;-2.47;100.00;98193.28;5098337;28;20027;-84
2023/01/31 06:22:18;;;;;;;1999.90;999.90;;;;;;;-2.43;100.00;98207.09;5098117;28;20035;-80
2023/01/31 06:24:43;;;;;;;1999.90;999.90;;;;;;;-2.34;100.00;98214.72;5096017;28;20103;-80
2023/01/31 06:27:09;;;;;;;1999.90;999.90;;;;;;;-2.45;100.00;98201.97;5093990;28;20466;-82
2023/01/31 06:29:34;;;;;;;1999.90;999.90;;;;;;;-2.41;100.00;98213.09;5096713;28;20036;-83
2023/01/31 06:31:59;;;;;;;1999.90;999.90;;;;;;;-2.33;100.00;98212.88;5098042;28;20039;-83
2023/01/31 06:34:24;;;;;;;1999.90;999.90;;;;;;;-2.24;100.00;98217.81;5098283;28;20028;-83
2023/01/31 06:36:50;;;;;;;1999.90;999.90;;;;;;;-2.25;100.00;98200.06;5093242;28;20393;-79
2023/01/31 06:39:15;;;;;;;1999.90;999.90;;;;;;;-2.18;100.00;98214.28;5098936;28;20542;-80
2023/01/31 06:41:40;;;;;;;1999.90;999.90;;;;;;;-2.17;100.00;98210.59;5106797;28;20032;-81
2023/01/31 06:44:06;;;;;;;1999.90;999.90;;;;;;;-1.76;100.00;98225.56;5108571;28;20016;-81
2023/01/31 06:46:32;;;;;;;1999.90;999.90;;;;;;;-1.56;100.00;98212.91;5108011;28;20031;-81
2023/01/31 06:48:57;;;;;;;1999.90;999.90;;;;;;;-1.06;100.00;98243.41;5100082;28;20036;-84
2023/01/31 06:51:23;;;;;;;1999.90;999.90;;;;;;;-0.47;100.00;98245.72;5096081;28;20058;-84
2023/01/31 06:53:50;;;;;;;1999.90;999.90;;;;;;;0.22;100.00;98247.44;5087164;28;20060;-81
2023/01/31 06:56:15;;;;;;;1999.90;999.90;;;;;;;0.15;100.00;98249.34;5073637;28;20602;-76
2023/01/31 06:58:41;;;;;;;1999.90;999.90;;;;;;;0.17;100.00;98268.78;5079972;28;20020;-76
2023/01/31 07:01:08;;;;;;;1999.90;999.90;;;;;;;0.47;100.00;98267.84;5098263;28;20047;-79
2023/01/31 07:03:33;;;;;;;1999.90;999.90;;;;;;;1.71;100.00;98271.84;5093788;28;20016;-78
2023/01/31 07:05:59;;;;;;;1999.90;999.90;;;;;;;2.65;100.00;98282.44;5090695;28;20031;-79
2023/01/31 07:08:24;;;;;;;1999.90;999.90;;;;;;;2.78;100.00;98284.91;5091128;28;20063;-80
2023/01/31 07:10:50;;;;;;;1999.90;999.90;;;;;;;3.57;100.00;98288.66;5090183;28;20059;-84
2023/01/31 07:13:15;;;;;;;1999.90;999.90;;;;;;;4.03;94.12;98299.22;5074746;28;20457;-81
2023/01/31 07:15:41;;;;;;;1999.90;999.90;;;;;;;4.66;87.41;98306.19;5076737;28;20472;-81
2023/01/31 07:18:06;;;;;;;1999.90;999.90;;;;;;;4.98;86.01;98309.88;5074664;28;20480;-87
2023/01/31 07:20:32;;;;;;;1999.90;999.90;;;;;;;5.76;81.36;98304.03;5075150;28;20040;-87
2023/01/31 07:22:58;;;;;;;1999.90;999.90;;;;;;;5.25;80.47;98302.66;5075512;28;20027;-88
2023/01/31 07:25:24;;;;;;;1999.90;999.90;;;;;;;4.47;86.52;98292.09;5075795;28;20569;-80
2023/01/31 07:27:53;;;;;;;1999.90;999.90;;;;;;;4.75;84.59;98307.38;5077925;28;20159;-84
2023/01/31 07:30:18;;;;;;;1999.90;999.90;;;;;;;4.39;85.32;98297.06;5074511;28;20537;-79
2023/01/31 07:32:44;;;;;;;1999.90;999.90;;;;;;;4.82;81.94;98314.25;5074279;28;20116;-80
2023/01/31 07:35:12;;;;;;;1999.90;999.90;;;;;;;4.60;83.27;98318.00;5074226;28;20101;-80
2023/01/31 07:37:42;;;;;;;1999.90;999.90;;;;;;;4.56;81.78;98314.16;5075943;28;20031;-85
2023/01/31 07:40:08;;;;;;;1999.90;999.90;;;;;;;5.68;76.56;98311.81;5081541;28;20035;-90
2023/01/31 07:42:35;;;;;;;1999.90;999.90;;;;;;;7.69;66.77;98342.38;5084343;28;20024;-88
2023/01/31 07:45:04;;;;;;;1999.90;999.90;;;;;;;8.10;64.12;98329.69;5087601;28;20029;-88
2023/01/31 07:47:29;;;;;;;1999.90;999.90;;;;;;;8.91;58.85;98337.88;5084786;28;20043;-89
2023/01/31 07:49:54;;;;;;;1999.90;999.90;;;;;;;8.68;56.55;98313.94;5097021;28;20024;-86
2023/01/31 07:52:20;;;;;;;1999.90;999.90;;;;;;;9.69;54.59;98296.16;5098122;28;20454;-86
2023/01/31 07:54:45;;;;;;;1999.90;999.90;;;;;;;10.69;50.74;98340.31;5101405;28;20019;-90
2023/01/31 07:57:12;;;;;;;1999.90;999.90;;;;;;;10.99;48.01;98335.69;5100187;28;20039;-86
2023/01/31 07:59:37;;;;;;;1999.90;999.90;;;;;;;11.18;49.09;98353.81;5103230;28;20035;-87
2023/01/31 08:04:46;;;;;;;1999.90;999.90;;;;;;;12.53;42.27;98349.63;5110033;28;20042;-86
2023/01/31 08:07:15;;;;;;;1999.90;999.90;;;;;;;13.19;39.92;98348.56;5109859;28;20028;-89
2023/01/31 08:09:42;;;;;;;1999.90;999.90;;;;;;;13.94;37.65;98365.50;5110418;28;20047;-89
2023/01/31 08:12:07;;;;;;;1999.90;999.90;;;;;;;13.26;37.61;98348.97;5105101;28;20024;-85
2023/01/31 08:14:32;;;;;;;1999.90;999.90;;;;;;;13.00;38.08;98353.28;5105486;28;20027;-85
2023/01/31 08:16:58;;;;;;;1999.90;999.90;;;;;;;12.61;39.19;98359.13;5101428;28;20357;-87
2023/01/31 08:19:23;;;;;;;1999.90;999.90;;;;;;;12.24;39.35;98346.25;5096850;28;20028;-87
2023/01/31 08:21:48;;;;;;;1999.90;999.90;;;;;;;12.72;38.39;98368.81;5096233;28;20456;-88
2023/01/31 08:24:14;;;;;;;1999.90;999.90;;;;;;;14.08;36.47;98368.25;5097447;28;20059;-86
2023/01/31 08:26:41;;;;;;;1999.90;999.90;;;;;;;14.28;35.44;98376.84;5098769;28;20488;-88
2023/01/31 08:29:07;;;;;;;1999.90;999.90;;;;;;;12.87;37.34;98374.09;5105173;28;20048;-83
2023/01/31 08:31:32;;;;;;;1999.90;999.90;;;;;;;13.31;36.88;98376.38;5103541;28;20035;-86
2023/01/31 08:33:58;;;;;;;1999.90;999.90;;;;;;;14.14;35.31;98380.75;5103968;28;20103;-88
2023/01/31 08:36:26;;;;;;;1999.90;999.90;;;;;;;14.84;34.39;98379.19;5104346;28;20035;-83
2023/01/31 08:38:52;;;;;;;1999.90;999.90;;;;;;;14.32;33.85;98385.31;5101749;28;20020;-85
2023/01/31 08:41:19;;;;;;;1999.90;999.90;;;;;;;14.45;34.41;98377.06;5099784;28;20748;-85
2023/01/31 08:43:45;;;;;;;1999.90;999.90;;;;;;;14.54;34.59;98388.16;5097882;28;20031;-82
2023/01/31 08:46:10;;;;;;;1999.90;999.90;;;;;;;12.85;36.32;98366.16;5099404;28;20028;-90
2023/01/31 08:48:37;;;;;;;1999.90;999.90;;;;;;;12.53;36.55;98384.53;5102161;28;20027;-88
2023/01/31 08:51:05;;;;;;;1999.90;999.90;;;;;;;10.72;39.55;98383.53;5099724;28;20024;-88
2023/01/31 08:53:31;;;;;;;1999.90;999.90;;;;;;;11.35;39.46;98386.25;5100105;28;20024;-89
2023/01/31 08:56:01;;;;;;;1999.90;999.90;;;;;;;12.77;37.61;98390.72;5101618;28;20047;-89
2023/01/31 08:58:27;;;;;;;1999.90;999.90;;;;;;;13.71;35.75;98394.84;5098688;28;20494;-86
2023/01/31 09:00:52;;;;;;;1999.90;999.90;;;;;;;15.76;32.61;98395.00;5100214;28;20028;-90
2023/01/31 09:03:17;;;;;;;1999.90;999.90;;;;;;;15.10;33.31;98392.34;5100432;28;20024;-87
2023/01/31 09:05:43;;;;;;;1999.90;999.90;;;;;;;15.03;33.47;98390.81;5099987;28;20096;-84
2023/01/31 09:08:09;;;;;;;1999.90;999.90;;;;;;;15.49;32.43;98384.16;5099038;28;20052;-89
2023/01/31 09:10:35;;;;;;;1999.90;999.90;;;;;;;15.48;32.09;98388.03;5100791;28;20069;-91
2023/01/31 09:13:00;;;;;;;1999.90;999.90;;;;;;;16.29;31.19;98386.56;5099301;28;20027;-88
2023/01/31 09:15:25;;;;;;;1999.90;999.90;;;;;;;16.64;30.20;98394.91;5102346;28;20028;-87
2023/01/31 09:17:52;;;;;;;1999.90;999.90;;;;;;;16.02;31.45;98404.19;5103562;28;20035;-88
2023/01/31 09:20:17;;;;;;;1999.90;999.90;;;;;;;16.07;31.53;98397.69;5101354;28;20119;-84
2023/01/31 09:22:43;;;;;;;1999.90;999.90;;;;;;;14.66;34.26;98395.88;5103773;28;20044;-91
2023/01/31 09:25:09;;;;;;;1999.90;999.90;;;;;;;15.24;33.31;98391.13;5099524;28;20081;-89
2023/01/31 09:27:37;;;;;;;1999.90;999.90;;;;;;;15.29;33.17;98406.69;5101066;28;20032;-89
2023/01/31 09:30:04;;;;;;;1999.90;999.90;;;;;;;14.65;33.87;98386.81;5099366;28;20027;-84
2023/01/31 09:32:30;;;;;;;1999.90;999.90;;;;;;;15.02;32.79;98386.44;5098487;28;20047;-86
2023/01/31 09:34:56;;;;;;;1999.90;999.90;;;;;;;13.61;34.65;98386.78;5100608;28;20020;-86
2023/01/31 09:37:21;;;;;;;1999.90;999.90;;;;;;;15.27;33.02;98408.97;5103671;28;20031;-86
2023/01/31 09:39:46;;;;;;;1999.90;999.90;;;;;;;15.78;32.00;98422.28;5103166;28;20036;-90
2023/01/31 09:42:47;;;;;;;1999.90;999.90;;;;;;;15.23;32.03;98417.06;5105858;28;20020;-88
2023/01/31 09:45:30;;;;;;;1999.90;999.90;;;;;;;14.58;33.46;98413.94;5084482;28;20036;-85
2023/01/31 09:47:57;;;;;;;1999.90;999.90;;;;;;;14.99;32.94;98414.63;5106740;28;20051;-89
2023/01/31 09:50:49;;;;;;;1999.90;999.90;;;;;;;15.15;31.58;98405.97;5098688;28;20024;-88
2023/01/31 09:53:20;;;;;;;1999.90;999.90;;;;;;;15.13;31.67;98397.22;5103481;28;20126;-92
2023/01/31 09:56:18;;;;;;;1999.90;999.90;;;;;;;15.82;31.43;98434.31;5106547;28;20040;-85
2023/01/31 09:58:49;;;;;;;1999.90;999.90;;;;;;;15.43;31.26;98424.81;5103311;28;20036;-86
2023/01/31 10:01:18;;;;;;;1999.90;999.90;;;;;;;15.66;31.04;98427.56;5101433;28;20088;-86
2023/01/31 10:04:04;;;;;;;1999.90;999.90;;;;;;;14.76;32.86;98412.97;5100109;28;20023;-87
2023/01/31 10:07:02;;;;;;;1999.90;999.90;;;;;;;15.83;31.65;98414.66;5100270;28;20060;-86
2023/01/31 10:09:36;;;;;;;1999.90;999.90;;;;;;;15.61;31.38;98425.75;5088049;28;20048;-84
2023/01/31 10:12:12;;;;;;;1999.90;999.90;;;;;;;14.99;33.80;98420.13;5102039;28;20047;-85
2023/01/31 10:14:46;;;;;;;1999.90;999.90;;;;;;;15.14;33.06;98418.13;5096990;28;20024;-85
2023/01/31 10:17:27;;;;;;;1999.90;999.90;;;;;;;15.00;33.08;98424.50;5106889;28;20031;-81
2023/01/31 10:20:26;;;;;;;1999.90;999.90;;;;;;;14.54;32.12;98418.44;5102618;28;20043;-84
2023/01/31 10:23:02;;;;;;;1999.90;999.90;;;;;;;14.05;33.60;98412.88;5098231;28;20028;-84
2023/01/31 10:25:37;;;;;;;1999.90;999.90;;;;;;;15.69;30.89;98421.41;5099032;28;20028;-84
2023/01/31 10:28:10;;;;;;;1999.90;999.90;;;;;;;16.61;30.30;98424.00;5098034;28;20012;-84
2023/01/31 10:30:42;;;;;;;1999.90;999.90;;;;;;;16.74;30.07;98425.81;5103603;28;20054;-83
2023/01/31 10:33:48;;;;;;;1999.90;999.90;;;;;;;15.96;32.85;98419.28;5102748;28;20065;-84
2023/01/31 10:36:23;;;;;;;1999.90;999.90;;;;;;;16.13;29.28;98404.72;5091660;28;20036;-87
2023/01/31 10:39:10;;;;;;;;;;;;;;;17.07;27.81;98423.41;5100571;28;20032;-85
2023/01/31 10:42:02;;;;;;;1999.90;999.90;;;;;;;17.09;28.17;98427.44;5104233;28;19915;-83
2023/01/31 10:44:48;;;;;;;1999.90;999.90;;;;;;;16.41;28.72;98408.03;5103091;28;20033;-84
2023/01/31 10:47:17;;;;;;;1999.90;999.90;;;;;;;17.58;26.13;98411.44;5107432;28;20028;-90
2023/01/31 10:49:45;;;;;;;1999.90;999.90;;;;;;;17.27;25.78;98408.06;5107961;28;20039;-85
2023/01/31 10:52:41;;;;;;;1999.90;999.90;;;;;;;17.14;25.50;98391.34;5110515;28;20035;-85
2023/01/31 10:55:15;;;;;;;;;;;;;;;14.64;27.86;98368.66;5107469;28;20012;-89
2023/01/31 10:57:41;;;;;;;1999.90;999.90;;;;;;;16.35;27.25;98376.19;5111514;28;19912;-85
2023/01/31 11:00:17;;;;;;;1999.90;999.90;;;;;;;16.41;25.95;98372.13;5109536;28;20447;-87
2023/01/31 11:02:43;;;;;;;1999.90;999.90;;;;;;;15.81;26.40;98366.47;5107363;28;20075;-85
2023/01/31 11:05:17;;;;;;;1999.90;999.90;;;;;;;15.56;26.28;98370.75;5107758;28;20035;-86
2023/01/31 11:07:42;;;;;;;1999.90;999.90;;;;;;;14.71;27.67;98352.50;5102194;28;20041;-85
2023/01/31 11:10:31;;;;;;;1999.90;999.90;;;;;;;14.07;28.71;98372.09;5099772;28;20020;-89